Manila Luzon Island, Philippines

7:03 AM PHT on September 22, 2014 (GMT +0800)
Taft Avenue, Manila | Change Station
CLOSE
Current Station
Personal Weather Station
Location: 2401 Taft Avenue, Manila
Elevation: 39 ft
Nearby Weather Stations

Elev 39 ft 14.57 °N, 120.99 °E | Updated 2 minutes ago

Light Rain
Light Rain
81.2 °F
Feels Like 89 °F
N
0.0
Wind Variable Wind from NNW
Gusts 2.0 mph

Today
High -- | Low -- °F
--% Chance of Precip.
Yesterday
High -- | Low -- °F
Precip. -- in
5:45 AM 5:52 PM
Waning Crescent, 5% visible
Pressure 29.83 in
Visibility 5.6 miles
Clouds Scattered Clouds 2200 ft
Overcast 10000 ft
Heat Index 89 °F
Dew Point 78 °F
Humidity 90%
Rainfall 0.00 in
Snow Depth Not available.
UV 0.0 out of 12
Pollen Not available.
Air Quality Not available.
Flu Activity Not available.
METAR RPLL 212200Z 25008KT 9000 -RA SCT022 OVC100 26/26 Q1010 NOSIG RMK A2983

More Conditions Fewer Conditions

Pressure 29.83 in
Visibility 5.6 miles
Clouds Scattered Clouds 2200 ft
Overcast 10000 ft
Heat Index 89 °F
Dew Point 78 °F
Humidity 90%
Rainfall 0.00 in
Snow Depth Not available.
UV 0.0 out of 12
Pollen Not available.
Air Quality Not available.
Flu Activity Not available.
METAR RPLL 212200Z 25008KT 9000 -RA SCT022 OVC100 26/26 Q1010 NOSIG RMK A2983

More Conditions Fewer Conditions

10-Day Weather Forecast

Almanac

Astronomy

Sep. 22, 2014 Rise Set
Actual Time 5:45 AM PHT 5:52 PM PHT
Civil Twilight 5:23 AM PHT 6:13 PM PHT
Nautical Twilight 4:58 AM PHT 6:38 PM PHT
Astronomical Twilight 4:34 AM PHT 7:03 PM PHT
Moon 3:56 AM PHT (9/22) 4:30 PM PHT (9/22)
Length of Visible Light 12h 50m
Length of Day
12h 07m
Tomorrow will be 0m 48s shorter.
Waning Crescent, 5% of the Moon is Illuminated
Sep 21
Waning Crescent
Sep 24
New
Oct 1
First Quarter
Oct 8
Full
Oct 15
Last Quarter

Yesterday's Extremes

Country Highs Country Lows

Community

WunderPhotos

Upload Photos

1,755,290 photos uploaded!

WunderBlogs® & News

Nearby

Snow Depth

Not available.

Earthquake Activity

City Distance Mag. Time & Date
No recent earthquake activity has been reported nearby.
Minimum magnitude displayed is 2.5.

Coastal Water Temperatures

Place Temperature
No Stations Reporting

Nearby Weather Stations